createdAt,value
2023-03-22T00:01:08.926Z,99445.97
2023-03-22T00:03:36.143Z,99451.16
2023-03-22T00:06:03.288Z,99447.84
2023-03-22T00:08:30.544Z,99453.56
2023-03-22T00:10:57.606Z,99459.44
2023-03-22T00:13:24.714Z,99469.84
2023-03-22T00:15:51.791Z,99472.88
2023-03-22T00:18:19.445Z,99474.88
2023-03-22T00:20:47.073Z,99478.22
2023-03-22T00:23:14.224Z,99492.78
2023-03-22T00:25:41.257Z,99491.31
2023-03-22T00:28:08.330Z,99484.59
2023-03-22T00:30:35.656Z,99486.59
2023-03-22T00:33:02.762Z,99493.66
2023-03-22T00:35:29.990Z,99480.25
2023-03-22T00:37:57.103Z,99483.75
2023-03-22T00:40:24.155Z,99470.19
2023-03-22T00:42:51.627Z,99475.88
2023-03-22T00:45:18.722Z,99468.19
2023-03-22T00:47:45.946Z,99466.00
2023-03-22T00:50:13.033Z,99460.47
2023-03-22T00:52:40.110Z,99462.50
2023-03-22T00:55:07.670Z,99459.00
2023-03-22T00:57:34.783Z,99459.84
2023-03-22T01:00:16.022Z,99462.16
2023-03-22T01:02:45.269Z,99457.47
2023-03-22T01:05:17.823Z,99469.38
2023-03-22T01:07:44.940Z,99469.88
2023-03-22T01:10:12.374Z,99468.19
2023-03-22T01:12:39.471Z,99473.56
2023-03-22T01:15:07.184Z,99486.28
2023-03-22T01:17:34.287Z,99474.88
2023-03-22T01:20:01.330Z,99481.94
2023-03-22T01:22:29.231Z,99465.53
2023-03-22T01:24:56.399Z,99470.69
2023-03-22T01:27:23.701Z,99471.22
2023-03-22T01:29:50.815Z,99469.19
2023-03-22T01:32:17.862Z,99480.28
2023-03-22T01:34:45.834Z,99482.63
2023-03-22T01:37:13.094Z,99479.63
2023-03-22T01:39:44.820Z,99474.41
2023-03-22T01:42:16.348Z,99459.69
2023-03-22T01:44:44.962Z,99462.53
2023-03-22T01:47:12.462Z,99460.81
2023-03-22T01:49:40.212Z,99459.69
2023-03-22T01:52:11.204Z,99460.81
2023-03-22T01:54:52.580Z,99448.13
2023-03-22T01:57:42.200Z,99436.69
2023-03-22T02:00:15.934Z,99437.69
2023-03-22T02:03:05.580Z,99437.69
2023-03-22T02:05:37.507Z,99458.13
2023-03-22T02:08:05.188Z,99465.69
2023-03-22T02:10:49.379Z,99461.34
2023-03-22T02:13:26.615Z,99462.81
2023-03-22T02:16:16.620Z,99449.59
2023-03-22T02:18:51.450Z,99448.75
2023-03-22T02:21:37.888Z,99458.13
2023-03-22T02:24:14.717Z,99446.06
2023-03-22T02:26:46.921Z,99451.09
2023-03-22T02:29:19.284Z,99450.09
2023-03-22T02:31:55.755Z,99443.91
2023-03-22T02:34:41.634Z,99444.22
2023-03-22T02:37:32.702Z,99433.88
2023-03-22T02:40:06.394Z,99425.84
2023-03-22T02:42:45.991Z,99445.75
2023-03-22T02:45:20.379Z,99435.38
2023-03-22T02:48:00.669Z,99428.66
2023-03-22T02:50:38.237Z,99430.69
2023-03-22T02:53:05.624Z,99419.63
2023-03-22T02:55:37.777Z,99425.31
2023-03-22T02:58:24.101Z,99423.84
2023-03-22T03:00:54.795Z,99408.59
2023-03-22T03:03:24.274Z,99423.66
2023-03-22T03:05:56.553Z,99415.31
2023-03-22T03:08:24.957Z,99399.41
2023-03-22T03:10:53.535Z,99399.38
2023-03-22T03:13:21.268Z,99409.44
2023-03-22T03:15:54.295Z,99391.34
2023-03-22T03:18:21.620Z,99380.16
2023-03-22T03:21:08.800Z,99392.69
2023-03-22T03:23:56.397Z,99381.47
2023-03-22T03:26:35.551Z,99371.44
2023-03-22T03:29:05.362Z,99376.78
2023-03-22T03:31:43.551Z,99372.25
2023-03-22T03:34:13.696Z,99378.13
2023-03-22T03:36:44.137Z,99373.75
2023-03-22T03:39:13.611Z,99383.47
2023-03-22T03:41:42.200Z,99388.34
2023-03-22T03:44:09.932Z,99395.69
2023-03-22T03:46:37.149Z,99389.84
2023-03-22T03:49:05.107Z,99385.28
2023-03-22T03:51:33.298Z,99370.84
2023-03-22T03:54:00.414Z,99376.31
2023-03-22T03:56:27.479Z,99377.13
2023-03-22T03:58:55.700Z,99418.03
2023-03-22T04:01:24.140Z,99395.00
2023-03-22T04:04:10.611Z,99377.91
2023-03-22T04:06:47.504Z,99400.19
2023-03-22T04:09:18.458Z,99420.13
2023-03-22T04:11:51.451Z,99410.03
2023-03-22T04:14:18.652Z,99429.16
2023-03-22T04:16:48.922Z,99440.28
2023-03-22T04:19:19.574Z,99438.91
2023-03-22T04:21:46.699Z,99416.38
2023-03-22T04:24:13.823Z,99425.72
2023-03-22T04:26:43.136Z,99422.22
2023-03-22T04:29:24.665Z,99413.66
2023-03-22T04:31:57.719Z,99415.31
2023-03-22T04:34:37.006Z,99417.31
2023-03-22T04:37:09.498Z,99439.81
2023-03-22T04:39:38.900Z,99438.84
2023-03-22T04:42:24.778Z,99413.84
2023-03-22T04:45:03.881Z,99421.09
2023-03-22T04:47:31.462Z,99412.81
2023-03-22T04:49:59.017Z,99437.53
2023-03-22T04:52:27.306Z,99421.09
2023-03-22T04:54:56.675Z,99430.16
2023-03-22T04:57:24.838Z,99437.91
2023-03-22T04:59:51.933Z,99439.97
2023-03-22T05:02:19.035Z,99430.84
2023-03-22T05:04:48.002Z,99436.41
2023-03-22T05:07:41.506Z,99431.56
2023-03-22T05:10:10.158Z,99446.81
2023-03-22T05:12:37.633Z,99442.66
2023-03-22T05:15:18.130Z,99442.84
2023-03-22T05:17:46.053Z,99451.72
2023-03-22T05:20:13.607Z,99451.56
2023-03-22T05:22:42.953Z,99464.47
2023-03-22T05:25:11.738Z,99454.72
2023-03-22T05:27:42.520Z,99450.66
2023-03-22T05:30:36.103Z,99438.91
2023-03-22T05:33:16.928Z,99460.09
2023-03-22T05:35:46.220Z,99463.44
2023-03-22T05:38:13.360Z,99466.47
2023-03-22T05:40:45.470Z,99464.75
2023-03-22T05:43:12.832Z,99456.31
2023-03-22T05:45:45.676Z,99477.09
2023-03-22T05:48:29.333Z,99463.06
2023-03-22T05:50:56.691Z,99476.13
2023-03-22T05:53:24.093Z,99494.53
2023-03-22T05:56:00.808Z,99504.66
2023-03-22T05:58:31.189Z,99533.31
2023-03-22T06:01:05.991Z,99537.94
2023-03-22T06:03:55.841Z,99534.63
2023-03-22T06:06:35.403Z,99537.28
2023-03-22T06:09:17.667Z,99514.69
2023-03-22T06:11:49.505Z,99514.19
2023-03-22T06:14:17.319Z,99520.06
2023-03-22T06:17:03.631Z,99507.56
2023-03-22T06:19:31.365Z,99515.63
2023-03-22T06:22:01.812Z,99515.81
2023-03-22T06:24:29.192Z,99525.75
2023-03-22T06:26:56.279Z,99539.81
2023-03-22T06:29:23.402Z,99525.94
2023-03-22T06:31:53.308Z,99527.47
2023-03-22T06:34:20.627Z,99525.31
2023-03-22T06:36:48.571Z,99524.97
2023-03-22T06:39:25.933Z,99535.19
2023-03-22T06:41:53.623Z,99536.56
2023-03-22T06:44:22.620Z,99545.97
2023-03-22T06:46:52.744Z,99552.97
2023-03-22T06:49:42.879Z,99545.19
2023-03-22T06:52:15.440Z,99567.88
2023-03-22T06:54:42.666Z,99593.00
2023-03-22T06:57:10.737Z,99600.28
2023-03-22T06:59:37.842Z,99602.44
2023-03-22T07:02:04.970Z,99582.34
2023-03-22T07:04:33.693Z,99604.94
2023-03-22T07:07:00.884Z,99599.06
2023-03-22T07:09:28.244Z,99559.50
2023-03-22T07:11:58.710Z,99568.41
2023-03-22T07:14:26.253Z,99561.63
2023-03-22T07:17:00.728Z,99582.53
2023-03-22T07:19:29.939Z,99591.22
2023-03-22T07:21:58.385Z,99583.63
2023-03-22T07:24:26.320Z,99574.50
2023-03-22T07:26:53.882Z,99583.91
2023-03-22T07:29:24.882Z,99586.31
2023-03-22T07:31:52.062Z,99601.44
2023-03-22T07:34:27.185Z,99568.03
2023-03-22T07:37:15.029Z,99540.00
2023-03-22T07:39:42.161Z,99556.19
2023-03-22T07:42:09.597Z,99486.56
2023-03-22T07:44:36.698Z,99461.25
2023-03-22T07:47:09.851Z,99424.66
2023-03-22T07:49:43.016Z,99350.59
2023-03-22T07:52:15.661Z,99317.50
2023-03-22T07:54:42.987Z,99261.34
2023-03-22T07:57:10.337Z,99235.34
2023-03-22T07:59:44.197Z,99220.28
2023-03-22T08:02:12.209Z,99201.47
2023-03-22T08:04:45.513Z,99144.03
2023-03-22T08:07:20.775Z,99126.19
2023-03-22T08:09:48.039Z,99066.34
2023-03-22T08:12:15.366Z,99003.25
2023-03-22T08:14:45.885Z,98956.03
2023-03-22T08:17:18.774Z,98847.88
2023-03-22T08:19:46.379Z,98807.41
2023-03-22T08:22:18.586Z,98758.44
2023-03-22T08:25:08.705Z,98688.69
2023-03-22T08:27:38.513Z,98641.28
2023-03-22T08:30:06.061Z,98547.81
2023-03-22T08:32:33.590Z,98475.13
2023-03-22T08:35:00.684Z,98448.22
2023-03-22T08:37:27.759Z,98354.97
2023-03-22T08:39:54.840Z,98351.47
2023-03-22T08:42:37.145Z,98222.25
2023-03-22T08:45:04.713Z,98078.66
2023-03-22T08:47:33.853Z,97904.75
2023-03-22T08:50:03.526Z,97782.25
2023-03-22T08:52:43.506Z,97708.63
2023-03-22T08:55:40.218Z,97706.91
2023-03-22T08:58:14.816Z,97715.66
2023-03-22T09:00:48.918Z,97572.53
2023-03-22T09:03:31.840Z,97580.22
2023-03-22T09:05:58.991Z,97544.44
2023-03-22T09:08:30.002Z,97491.56
2023-03-22T09:11:07.768Z,97408.75
2023-03-22T09:13:35.831Z,97368.22
2023-03-22T09:16:04.879Z,97332.34
2023-03-22T09:18:33.552Z,97186.84
2023-03-22T09:21:04.400Z,97131.72
2023-03-22T09:23:51.849Z,97023.94
2023-03-22T09:26:24.182Z,97022.09
2023-03-22T09:28:52.637Z,96994.78
2023-03-22T09:31:20.727Z,96916.56
2023-03-22T09:33:53.461Z,96895.69
2023-03-22T09:36:20.591Z,96762.06
2023-03-22T09:38:49.890Z,96751.19
2023-03-22T09:41:27.637Z,96667.63
2023-03-22T09:43:57.249Z,96605.91
2023-03-22T09:46:44.320Z,96580.69
2023-03-22T09:49:18.175Z,96496.25
2023-03-22T09:51:52.743Z,96468.13
2023-03-22T09:54:24.955Z,96458.44
2023-03-22T09:57:18.149Z,96400.16
2023-03-22T09:59:48.264Z,96371.06
2023-03-22T10:02:36.660Z,96351.75
2023-03-22T10:05:12.511Z,96420.47
2023-03-22T10:07:39.534Z,96319.84
2023-03-22T10:10:21.174Z,96285.13
2023-03-22T10:13:07.758Z,96259.09
2023-03-22T10:15:40.889Z,96206.22
2023-03-22T10:18:11.646Z,96261.59
2023-03-22T10:20:42.848Z,96155.47
2023-03-22T10:23:12.471Z,96092.88
2023-03-22T10:25:41.974Z,96030.91
2023-03-22T10:28:14.052Z,95961.25
2023-03-22T10:30:42.842Z,95880.13
2023-03-22T10:33:14.186Z,95905.03
2023-03-22T10:35:41.920Z,95859.47
2023-03-22T10:38:14.890Z,95830.38
2023-03-22T10:40:42.614Z,95732.06
2023-03-22T10:43:19.971Z,95703.88
2023-03-22T10:45:47.139Z,95782.97
2023-03-22T10:48:21.210Z,95697.53
2023-03-22T10:50:48.329Z,95662.34
2023-03-22T10:53:30.491Z,95643.16
2023-03-22T10:55:57.753Z,95526.66
2023-03-22T10:58:34.276Z,95522.72
2023-03-22T11:01:07.148Z,95488.03
2023-03-22T11:03:42.806Z,95521.88
2023-03-22T11:06:16.156Z,95472.25
2023-03-22T11:08:51.346Z,95485.69
2023-03-22T11:11:29.165Z,95436.91
2023-03-22T11:14:00.178Z,95389.97
2023-03-22T11:16:27.893Z,95419.22
2023-03-22T11:18:55.790Z,95443.56
2023-03-22T11:21:24.995Z,95446.69
2023-03-22T11:23:55.841Z,95463.28
2023-03-22T11:26:28.495Z,95382.38
2023-03-22T11:29:02.559Z,95434.91
2023-03-22T11:31:47.519Z,95459.63
2023-03-22T11:34:17.000Z,95439.44
2023-03-22T11:36:45.256Z,95489.44
2023-03-22T11:39:12.618Z,95442.75
2023-03-22T11:41:40.307Z,95456.56
2023-03-22T11:44:12.610Z,95513.03
2023-03-22T11:46:40.136Z,95470.81
2023-03-22T11:49:09.397Z,95493.03
2023-03-22T11:51:40.205Z,95573.72
2023-03-22T11:54:25.924Z,95577.63
2023-03-22T11:56:54.862Z,95615.00
2023-03-22T11:59:26.360Z,95623.19
2023-03-22T12:02:11.632Z,95553.75
2023-03-22T12:04:40.094Z,95555.66
2023-03-22T12:07:15.793Z,95542.31
2023-03-22T12:09:44.768Z,95597.06
2023-03-22T12:12:17.927Z,95570.66
2023-03-22T12:15:03.963Z,95538.50
2023-03-22T12:17:38.301Z,95522.72
2023-03-22T12:20:08.767Z,95500.22
2023-03-22T12:22:39.926Z,95448.91
2023-03-22T12:25:17.738Z,95316.19
2023-03-22T12:27:47.475Z,95283.69
2023-03-22T12:30:34.938Z,95207.13
2023-03-22T12:33:20.720Z,95130.63
2023-03-22T12:35:48.704Z,95119.94
2023-03-22T12:38:21.873Z,95120.31
2023-03-22T12:40:49.717Z,95050.16
2023-03-22T12:43:34.969Z,95055.63
2023-03-22T12:46:03.916Z,95065.94
2023-03-22T12:48:34.003Z,95036.50
2023-03-22T12:51:04.375Z,95046.56
2023-03-22T12:53:34.621Z,94928.81
2023-03-22T12:56:02.376Z,94931.84
2023-03-22T12:58:29.433Z,94860.56
2023-03-22T13:01:08.564Z,94765.47
2023-03-22T13:03:40.437Z,94707.59
2023-03-22T13:06:28.043Z,94659.28
2023-03-22T13:09:24.322Z,94871.38
2023-03-22T13:12:10.241Z,94977.34
2023-03-22T13:14:52.376Z,95059.53
2023-03-22T13:17:22.208Z,95104.25
2023-03-22T13:20:12.287Z,95126.25
2023-03-22T13:22:41.545Z,95131.06
2023-03-22T13:25:17.097Z,95122.75
2023-03-22T13:27:50.189Z,95116.19
2023-03-22T13:30:23.242Z,95086.84
2023-03-22T13:33:11.116Z,95051.31
2023-03-22T13:35:54.255Z,95036.81
2023-03-22T13:38:23.612Z,95036.09
2023-03-22T13:40:56.935Z,95025.69
2023-03-22T13:43:28.437Z,94995.41
2023-03-22T13:45:58.653Z,94991.91
2023-03-22T13:48:28.752Z,94949.50
2023-03-22T13:50:56.656Z,94948.06
2023-03-22T13:53:33.787Z,94926.69
2023-03-22T13:56:03.598Z,94917.09
2023-03-22T13:58:36.045Z,94893.56
2023-03-22T14:01:08.049Z,94884.34
2023-03-22T14:03:41.466Z,94851.97
2023-03-22T14:06:15.353Z,94819.72
2023-03-22T14:08:44.162Z,94777.06
2023-03-22T14:11:17.083Z,94753.47
2023-03-22T14:13:48.043Z,94751.22
2023-03-22T14:16:18.494Z,94725.84
2023-03-22T14:18:47.678Z,94690.81
2023-03-22T14:21:29.143Z,94677.66
